createdAt,value
2023-11-15T00:02:07.930Z,9.91
2023-11-15T00:04:35.538Z,9.89
2023-11-15T00:07:03.140Z,9.88
2023-11-15T00:09:32.273Z,9.99
2023-11-15T00:12:01.320Z,10.03
2023-11-15T00:14:29.091Z,9.83
2023-11-15T00:16:57.440Z,9.85
2023-11-15T00:19:25.157Z,10.10
2023-11-15T00:21:52.767Z,10.11
2023-11-15T00:24:20.512Z,10.14
2023-11-15T00:26:48.354Z,10.10
2023-11-15T00:29:17.381Z,10.09
2023-11-15T00:31:44.965Z,10.06
2023-11-15T00:34:12.595Z,10.09
2023-11-15T00:36:40.908Z,10.13
2023-11-15T00:39:09.931Z,10.08
2023-11-15T00:41:37.801Z,10.05
2023-11-15T00:44:08.392Z,9.98
2023-11-15T00:46:37.305Z,9.87
2023-11-15T00:49:05.111Z,9.80
2023-11-15T00:51:32.770Z,9.79
2023-11-15T00:54:00.458Z,9.75
2023-11-15T00:56:28.223Z,9.75
2023-11-15T00:58:57.821Z,9.73
2023-11-15T01:01:26.712Z,9.75
2023-11-15T01:03:58.157Z,9.82
2023-11-15T01:06:26.392Z,9.87
2023-11-15T01:08:55.931Z,9.97
2023-11-15T01:11:24.643Z,9.99
2023-11-15T01:13:52.388Z,10.08
2023-11-15T01:16:20.286Z,10.14
2023-11-15T01:18:47.990Z,10.12
2023-11-15T01:21:19.277Z,10.07
2023-11-15T01:23:47.147Z,10.08
2023-11-15T01:26:15.878Z,10.02
2023-11-15T01:28:43.558Z,9.94
2023-11-15T01:31:11.418Z,9.93
2023-11-15T01:33:39.079Z,9.98
2023-11-15T01:36:07.875Z,9.95
2023-11-15T01:38:38.522Z,9.86
2023-11-15T01:41:06.932Z,9.84
2023-11-15T01:43:34.648Z,9.86
2023-11-15T01:46:02.478Z,9.84
2023-11-15T01:48:30.361Z,9.81
2023-11-15T01:50:58.018Z,9.76
2023-11-15T01:53:26.234Z,9.84
2023-11-15T01:55:55.680Z,9.87
2023-11-15T01:58:26.561Z,9.87
2023-11-15T02:00:55.861Z,9.88
2023-11-15T02:03:23.684Z,9.90
2023-11-15T02:05:53.392Z,9.92
2023-11-15T02:08:21.378Z,9.96
2023-11-15T02:10:50.340Z,9.94
2023-11-15T02:13:24.001Z,9.96
2023-11-15T02:15:53.358Z,9.98
2023-11-15T02:18:23.136Z,9.95
2023-11-15T02:20:51.080Z,9.88
2023-11-15T02:23:21.285Z,9.70
2023-11-15T02:25:51.896Z,9.84
2023-11-15T02:28:19.845Z,9.89
2023-11-15T02:30:47.567Z,9.86
2023-11-15T02:33:15.673Z,9.91
2023-11-15T02:35:43.352Z,9.90
2023-11-15T02:38:11.005Z,9.88
2023-11-15T02:40:39.859Z,9.87
2023-11-15T02:43:14.019Z,9.87
2023-11-15T02:45:42.610Z,9.86
2023-11-15T02:48:10.936Z,9.85
2023-11-15T02:50:38.709Z,9.92
2023-11-15T02:53:06.468Z,9.98
2023-11-15T02:55:34.223Z,10.03
2023-11-15T02:58:02.109Z,10.05
2023-11-15T03:00:31.962Z,10.02
2023-11-15T03:02:59.688Z,10.00
2023-11-15T03:05:28.762Z,9.97
2023-11-15T03:07:56.543Z,9.97
2023-11-15T03:10:24.460Z,9.80
2023-11-15T03:12:52.213Z,9.98
2023-11-15T03:15:20.322Z,9.94
2023-11-15T03:17:49.372Z,9.91
2023-11-15T03:20:17.268Z,9.86
2023-11-15T03:22:45.095Z,9.87
2023-11-15T03:25:12.746Z,9.93
2023-11-15T03:27:40.366Z,10.00
2023-11-15T03:30:09.375Z,10.01
2023-11-15T03:32:37.026Z,10.03
2023-11-15T03:35:06.887Z,10.03
2023-11-15T03:37:34.471Z,10.02
2023-11-15T03:40:02.144Z,10.01
2023-11-15T03:42:29.838Z,9.97
2023-11-15T03:44:59.195Z,10.06
2023-11-15T03:47:26.961Z,10.02
2023-11-15T03:49:54.585Z,10.04
2023-11-15T03:52:23.510Z,10.08
2023-11-15T03:54:51.184Z,10.08
2023-11-15T03:57:18.776Z,10.06
2023-11-15T03:59:46.478Z,10.05
2023-11-15T04:02:14.144Z,10.06
2023-11-15T04:04:41.936Z,10.03
2023-11-15T04:07:10.000Z,10.04
2023-11-15T04:09:39.878Z,10.07
2023-11-15T04:12:07.628Z,10.09
2023-11-15T04:14:35.936Z,10.04
2023-11-15T04:17:03.620Z,9.97
2023-11-15T04:19:31.181Z,9.94
2023-11-15T04:22:08.800Z,9.85
2023-11-15T04:24:43.923Z,9.76
2023-11-15T04:27:11.569Z,9.72
2023-11-15T04:29:39.406Z,9.66
2023-11-15T04:32:07.717Z,9.67
2023-11-15T04:34:35.291Z,9.67
2023-11-15T04:37:03.730Z,9.68
2023-11-15T04:39:32.046Z,9.68
2023-11-15T04:42:00.985Z,9.67
2023-11-15T04:44:29.048Z,9.64
2023-11-15T04:46:56.687Z,9.54
2023-11-15T04:49:24.342Z,9.50
2023-11-15T04:51:52.775Z,9.45
2023-11-15T04:54:20.356Z,9.41
2023-11-15T04:56:48.041Z,9.40
2023-11-15T04:59:16.994Z,9.38
2023-11-15T05:01:46.893Z,9.38
2023-11-15T05:04:15.818Z,9.40
2023-11-15T05:06:43.935Z,9.40
2023-11-15T05:09:11.528Z,9.46
2023-11-15T05:11:39.182Z,9.49
2023-11-15T05:14:07.632Z,9.52
2023-11-15T05:16:36.631Z,9.57
2023-11-15T05:19:04.785Z,9.60
2023-11-15T05:21:32.470Z,9.60
2023-11-15T05:24:00.422Z,9.61
2023-11-15T05:26:28.320Z,9.60
2023-11-15T05:28:55.925Z,9.63
2023-11-15T05:31:24.187Z,9.54
2023-11-15T05:33:53.152Z,9.58
2023-11-15T05:36:20.753Z,9.47
2023-11-15T05:38:48.415Z,9.36
2023-11-15T05:41:16.061Z,9.24
2023-11-15T05:43:43.652Z,9.34
2023-11-15T05:46:11.308Z,9.33
2023-11-15T05:48:39.083Z,9.34
2023-11-15T05:51:08.838Z,9.34
2023-11-15T05:53:36.471Z,9.39
2023-11-15T05:56:04.249Z,9.39
2023-11-15T05:58:31.862Z,9.36
2023-11-15T06:00:59.446Z,9.39
2023-11-15T06:03:27.130Z,9.43
2023-11-15T06:05:54.817Z,9.40
2023-11-15T06:08:25.088Z,9.49
2023-11-15T06:10:52.730Z,9.48
2023-11-15T06:13:20.343Z,9.48
2023-11-15T06:15:47.931Z,9.50
2023-11-15T06:18:15.545Z,9.51
2023-11-15T06:20:43.803Z,9.48
2023-11-15T06:23:11.801Z,9.48
2023-11-15T06:25:43.046Z,9.49
2023-11-15T06:28:12.599Z,9.53
2023-11-15T06:30:40.374Z,9.50
2023-11-15T06:33:08.190Z,9.57
2023-11-15T06:35:36.980Z,9.48
2023-11-15T06:38:06.103Z,9.53
2023-11-15T06:40:34.182Z,9.61
2023-11-15T06:43:03.622Z,9.63
2023-11-15T06:45:33.483Z,9.58
2023-11-15T06:48:01.790Z,9.58
2023-11-15T06:50:29.596Z,9.57
2023-11-15T06:52:57.705Z,9.59
2023-11-15T06:55:25.294Z,9.51
2023-11-15T06:57:52.907Z,9.49
2023-11-15T07:00:23.113Z,9.51
2023-11-15T07:02:50.831Z,9.46
2023-11-15T07:05:19.148Z,9.42
2023-11-15T07:07:47.416Z,9.45
2023-11-15T07:10:16.291Z,9.48
2023-11-15T07:12:43.987Z,9.50
2023-11-15T07:15:15.394Z,9.52
2023-11-15T07:17:44.588Z,9.53
2023-11-15T07:20:14.528Z,9.58
2023-11-15T07:22:41.976Z,9.59
2023-11-15T07:25:10.582Z,9.60
2023-11-15T07:27:39.414Z,9.68
2023-11-15T07:30:09.586Z,9.65
2023-11-15T07:32:37.420Z,9.67
2023-11-15T07:35:07.052Z,9.69
2023-11-15T07:37:35.629Z,9.69
2023-11-15T07:40:04.141Z,9.67
2023-11-15T07:42:33.522Z,9.74
2023-11-15T07:45:03.200Z,9.74
2023-11-15T07:47:35.390Z,9.70
2023-11-15T07:50:04.448Z,9.83
2023-11-15T07:52:33.509Z,9.73
2023-11-15T07:55:01.923Z,9.75
2023-11-15T07:57:29.996Z,9.76
2023-11-15T07:59:58.146Z,9.79
2023-11-15T08:02:25.897Z,9.92
2023-11-15T08:04:53.533Z,9.94
2023-11-15T08:07:22.801Z,9.92
2023-11-15T08:09:51.769Z,9.96
2023-11-15T08:12:19.562Z,10.03
2023-11-15T08:14:47.202Z,10.11
2023-11-15T08:17:15.736Z,10.15
2023-11-15T08:19:47.979Z,10.24
2023-11-15T08:22:17.582Z,10.14
2023-11-15T08:24:47.970Z,10.17
2023-11-15T08:27:17.169Z,10.27
2023-11-15T08:29:44.790Z,10.27
2023-11-15T08:32:13.918Z,10.26
2023-11-15T08:34:42.601Z,10.28
2023-11-15T08:37:10.434Z,10.36
2023-11-15T08:39:38.137Z,10.36
2023-11-15T08:42:07.407Z,10.36
2023-11-15T08:44:38.436Z,10.42
2023-11-15T08:47:06.169Z,10.44
2023-11-15T08:49:33.773Z,10.49
2023-11-15T08:52:02.028Z,10.56
2023-11-15T08:54:29.660Z,10.55
2023-11-15T08:56:57.301Z,10.56
2023-11-15T08:59:27.736Z,10.66
2023-11-15T09:01:57.300Z,10.67
2023-11-15T09:04:25.025Z,10.65
2023-11-15T09:06:53.851Z,10.70
2023-11-15T09:09:22.167Z,10.76
2023-11-15T09:11:52.255Z,10.78
2023-11-15T09:14:19.919Z,10.50
2023-11-15T09:16:47.589Z,10.75
2023-11-15T09:19:22.193Z,10.78
2023-11-15T09:21:50.717Z,10.80
2023-11-15T09:24:22.640Z,10.79
2023-11-15T09:26:50.666Z,10.76
2023-11-15T09:29:18.320Z,10.67
2023-11-15T09:31:46.198Z,10.67
2023-11-15T09:34:13.933Z,10.80
2023-11-15T09:36:43.967Z,10.75
2023-11-15T09:39:11.817Z,10.71
2023-11-15T09:41:39.510Z,10.73
2023-11-15T09:44:10.565Z,10.82
2023-11-15T09:46:39.209Z,10.80
2023-11-15T09:49:08.551Z,10.85
2023-11-15T09:51:36.841Z,10.94
2023-11-15T09:54:12.960Z,10.95
2023-11-15T09:56:47.541Z,10.85
2023-11-15T09:59:16.569Z,11.04
2023-11-15T10:01:45.585Z,11.04
2023-11-15T10:04:23.492Z,11.15
2023-11-15T10:06:52.990Z,11.25
2023-11-15T10:09:36.853Z,11.25
2023-11-15T10:12:07.126Z,11.29
2023-11-15T10:14:36.385Z,11.41
2023-11-15T10:17:07.653Z,11.31
2023-11-15T10:19:35.590Z,11.20
2023-11-15T10:22:05.637Z,11.40
2023-11-15T10:24:36.279Z,11.58
2023-11-15T10:27:08.753Z,11.57
2023-11-15T10:29:38.896Z,11.61
2023-11-15T10:32:07.506Z,11.61
2023-11-15T10:34:36.205Z,11.70
2023-11-15T10:37:06.728Z,11.57
2023-11-15T10:39:41.742Z,11.53
2023-11-15T10:42:11.285Z,11.39
2023-11-15T10:44:39.593Z,11.52
2023-11-15T10:47:08.804Z,11.72
2023-11-15T10:49:40.342Z,11.92
2023-11-15T10:52:09.973Z,11.92
2023-11-15T10:54:40.397Z,11.82
2023-11-15T10:57:09.954Z,11.70
2023-11-15T10:59:39.862Z,11.64
2023-11-15T11:02:08.718Z,11.76
2023-11-15T11:04:37.769Z,11.84
2023-11-15T11:07:11.175Z,11.67
2023-11-15T11:09:48.238Z,11.65
2023-11-15T11:12:18.215Z,11.77
2023-11-15T11:14:47.378Z,11.51
2023-11-15T11:17:38.387Z,11.71
2023-11-15T11:20:26.235Z,11.69
2023-11-15T11:23:17.897Z,11.57
2023-11-15T11:25:49.369Z,11.45
2023-11-15T11:28:17.575Z,11.48
2023-11-15T11:31:20.119Z,11.62
2023-11-15T11:34:09.212Z,11.65
2023-11-15T11:36:46.609Z,11.58
2023-11-15T11:39:14.844Z,11.56
2023-11-15T11:41:44.413Z,11.58
2023-11-15T11:44:13.810Z,11.45
2023-11-15T11:46:41.485Z,11.41
2023-11-15T11:49:09.393Z,11.39
2023-11-15T11:51:37.006Z,11.42
2023-11-15T11:54:04.944Z,11.47
2023-11-15T11:56:33.267Z,11.51
2023-11-15T11:59:13.180Z,11.46
2023-11-15T12:01:48.770Z,11.44
2023-11-15T12:04:16.632Z,11.34
2023-11-15T12:06:44.306Z,11.26
2023-11-15T12:09:12.835Z,11.17
2023-11-15T12:11:41.706Z,11.09
2023-11-15T12:14:14.236Z,10.94
2023-11-15T12:16:41.887Z,11.05
2023-11-15T12:19:11.116Z,11.04
2023-11-15T12:21:40.010Z,11.16
2023-11-15T12:24:11.171Z,11.19
2023-11-15T12:26:46.617Z,11.25
2023-11-15T12:29:23.365Z,11.23
2023-11-15T12:31:52.469Z,11.30
2023-11-15T12:34:20.570Z,11.39
2023-11-15T12:36:48.468Z,11.39
2023-11-15T12:39:17.620Z,11.49
2023-11-15T12:41:47.846Z,11.49
2023-11-15T12:44:15.946Z,11.53
2023-11-15T12:46:45.450Z,11.37
2023-11-15T12:49:15.465Z,11.54
2023-11-15T12:51:47.289Z,11.65
2023-11-15T12:54:15.701Z,11.79
2023-11-15T12:56:44.403Z,11.76
2023-11-15T12:59:15.397Z,11.92
2023-11-15T13:01:47.676Z,11.95
2023-11-15T13:04:16.563Z,12.04
2023-11-15T13:06:44.517Z,12.09
2023-11-15T13:09:15.964Z,11.88
2023-11-15T13:11:45.148Z,11.83
2023-11-15T13:14:16.956Z,11.98
2023-11-15T13:16:44.663Z,12.05
2023-11-15T13:19:13.615Z,11.98
2023-11-15T13:21:44.843Z,12.00
2023-11-15T13:24:12.542Z,11.88
2023-11-15T13:26:41.264Z,11.85
2023-11-15T13:29:10.008Z,11.85
2023-11-15T13:31:37.600Z,11.91
2023-11-15T13:34:05.712Z,11.88
2023-11-15T13:36:35.982Z,11.93
2023-11-15T13:39:06.418Z,11.74
2023-11-15T13:41:34.089Z,11.62
2023-11-15T13:44:01.667Z,11.64
2023-11-15T13:46:29.959Z,11.45
2023-11-15T13:49:02.989Z,11.44
2023-11-15T13:51:31.550Z,11.33
2023-11-15T13:54:01.075Z,11.13
2023-11-15T13:56:29.202Z,11.09
2023-11-15T13:58:57.263Z,10.50
2023-11-15T14:01:25.422Z,9.99
2023-11-15T14:03:53.165Z,9.68
2023-11-15T14:06:20.831Z,9.49
2023-11-15T14:08:56.054Z,9.37
2023-11-15T14:11:30.617Z,9.14
2023-11-15T14:13:58.803Z,9.09
2023-11-15T14:16:26.743Z,9.05
2023-11-15T14:18:55.917Z,9.10
2023-11-15T14:21:24.689Z,9.01
2023-11-15T14:23:52.284Z,8.98
2023-11-15T14:26:20.568Z,8.96
2023-11-15T14:28:51.167Z,8.92
2023-11-15T14:31:19.458Z,8.92
2023-11-15T14:33:47.279Z,8.89
2023-11-15T14:36:17.583Z,8.89
2023-11-15T14:38:47.505Z,8.81
2023-11-15T14:41:17.509Z,8.88
2023-11-15T14:43:46.594Z,8.78
2023-11-15T14:46:16.661Z,8.85
2023-11-15T14:48:44.583Z,8.86
2023-11-15T14:51:13.316Z,8.81
2023-11-15T14:53:53.499Z,8.79
2023-11-15T14:56:21.327Z,8.90
2023-11-15T14:58:53.361Z,8.93
2023-11-15T15:01:24.877Z,8.98
2023-11-15T15:03:52.977Z,8.97
2023-11-15T15:06:20.870Z,9.03
2023-11-15T15:08:48.742Z,9.06
2023-11-15T15:11:16.495Z,9.08
2023-11-15T15:13:44.417Z,9.10
2023-11-15T15:16:12.997Z,9.11
2023-11-15T15:18:42.757Z,9.11
2023-11-15T15:21:11.113Z,9.09
2023-11-15T15:23:38.995Z,9.07
2023-11-15T15:26:06.977Z,9.02
2023-11-15T15:28:34.694Z,8.96
2023-11-15T15:31:02.382Z,9.00
2023-11-15T15:33:29.764Z,8.97
2023-11-15T15:35:59.040Z,8.94
2023-11-15T15:38:27.013Z,8.93
2023-11-15T15:40:55.433Z,8.83
2023-11-15T15:43:23.144Z,8.82
2023-11-15T15:45:51.079Z,8.78
2023-11-15T15:48:19.091Z,8.78
2023-11-15T15:50:49.518Z,8.72
2023-11-15T15:53:18.571Z,8.71
2023-11-15T15:55:46.414Z,8.69
2023-11-15T15:58:16.423Z,8.70
2023-11-15T16:00:44.151Z,8.67
2023-11-15T16:03:11.917Z,8.68
2023-11-15T16:05:39.698Z,8.73
2023-11-15T16:08:07.993Z,8.76
2023-11-15T16:10:36.988Z,8.59
2023-11-15T16:13:04.994Z,8.81
2023-11-15T16:15:32.786Z,8.83
2023-11-15T16:18:00.555Z,8.86
2023-11-15T16:20:28.462Z,8.87
2023-11-15T16:22:57.771Z,8.86
2023-11-15T16:25:25.558Z,8.84
2023-11-15T16:27:54.817Z,8.84
2023-11-15T16:30:24.812Z,8.86
2023-11-15T16:32:54.158Z,8.76
2023-11-15T16:35:22.042Z,8.68
2023-11-15T16:37:50.509Z,8.62
2023-11-15T16:40:18.503Z,8.37
2023-11-15T16:42:46.331Z,8.55
2023-11-15T16:45:16.450Z,8.58
2023-11-15T16:47:44.210Z,8.57
2023-11-15T16:50:11.910Z,8.56
2023-11-15T16:52:40.368Z,8.52
2023-11-15T16:55:13.470Z,8.52
2023-11-15T16:57:41.410Z,8.54
2023-11-15T17:00:10.679Z,8.47
2023-11-15T17:02:40.203Z,8.43
2023-11-15T17:05:08.396Z,8.39
2023-11-15T17:07:36.173Z,8.37
2023-11-15T17:10:04.246Z,8.30
2023-11-15T17:12:31.972Z,8.24
2023-11-15T17:15:00.745Z,8.16
2023-11-15T17:17:29.701Z,8.21
2023-11-15T17:19:59.065Z,8.19
2023-11-15T17:22:26.825Z,8.19
2023-11-15T17:24:54.536Z,8.22
2023-11-15T17:27:22.373Z,8.21
2023-11-15T17:29:51.922Z,8.16
2023-11-15T17:32:19.786Z,8.20
2023-11-15T17:34:47.529Z,8.19
2023-11-15T17:37:16.678Z,8.25
2023-11-15T17:39:44.879Z,8.24
2023-11-15T17:42:12.981Z,8.22
2023-11-15T17:44:40.753Z,8.21
2023-11-15T17:47:08.436Z,8.17
2023-11-15T17:49:36.299Z,8.16
2023-11-15T17:52:10.929Z,8.14
2023-11-15T17:54:40.030Z,8.18
2023-11-15T17:57:07.929Z,8.19
2023-11-15T17:59:35.735Z,8.24
2023-11-15T18:02:05.307Z,8.26
2023-11-15T18:04:33.097Z,8.30
2023-11-15T18:07:00.863Z,8.25
2023-11-15T18:09:28.611Z,8.30
2023-11-15T18:11:57.844Z,8.30
2023-11-15T18:14:27.017Z,8.27
2023-11-15T18:16:56.589Z,8.12
2023-11-15T18:19:24.371Z,8.32
2023-11-15T18:21:53.019Z,8.31
2023-11-15T18:24:20.987Z,8.28
2023-11-15T18:26:48.845Z,8.25
2023-11-15T18:29:17.898Z,8.26
2023-11-15T18:31:46.085Z,8.26
2023-11-15T18:34:13.961Z,8.30
2023-11-15T18:36:44.630Z,8.10
2023-11-15T18:39:15.699Z,8.28
2023-11-15T18:41:44.279Z,8.25
2023-11-15T18:44:12.645Z,8.16
2023-11-15T18:46:41.904Z,8.25
2023-11-15T18:49:10.136Z,8.29
2023-11-15T18:51:37.869Z,8.31
2023-11-15T18:54:07.560Z,8.32
2023-11-15T18:56:35.301Z,8.32
2023-11-15T18:59:03.081Z,8.34
2023-11-15T19:01:31.014Z,8.35
2023-11-15T19:04:00.898Z,8.37
2023-11-15T19:06:30.288Z,8.34
2023-11-15T19:08:58.964Z,8.38
2023-11-15T19:11:27.765Z,8.37
2023-11-15T19:13:58.727Z,8.34
2023-11-15T19:16:28.903Z,8.31
2023-11-15T19:18:56.817Z,8.30
2023-11-15T19:21:26.169Z,8.29
2023-11-15T19:23:53.972Z,8.23
2023-11-15T19:26:25.301Z,8.29
2023-11-15T19:28:53.201Z,8.25
2023-11-15T19:31:21.402Z,8.28
2023-11-15T19:33:49.807Z,8.28
2023-11-15T19:36:17.578Z,8.31
2023-11-15T19:38:46.616Z,8.22
2023-11-15T19:41:19.718Z,8.28
2023-11-15T19:43:47.508Z,8.32
2023-11-15T19:46:18.632Z,8.25
2023-11-15T19:48:47.404Z,8.32
2023-11-15T19:51:15.238Z,8.27
2023-11-15T19:53:42.921Z,8.36
2023-11-15T19:56:11.849Z,8.37
2023-11-15T19:58:39.468Z,8.33
2023-11-15T20:01:14.284Z,8.38
2023-11-15T20:03:44.088Z,8.36
2023-11-15T20:06:12.393Z,8.35
2023-11-15T20:08:40.878Z,8.31
2023-11-15T20:11:11.964Z,8.32
2023-11-15T20:13:42.095Z,8.40
2023-11-15T20:16:10.350Z,8.42
2023-11-15T20:18:41.045Z,8.35
2023-11-15T20:21:09.135Z,8.28
2023-11-15T20:23:38.534Z,8.25
2023-11-15T20:26:07.761Z,8.20
2023-11-15T20:28:39.244Z,8.20
2023-11-15T20:31:14.318Z,8.17
2023-11-15T20:33:42.515Z,8.16
2023-11-15T20:36:11.532Z,8.20
2023-11-15T20:38:39.400Z,8.19
2023-11-15T20:41:08.436Z,8.20
2023-11-15T20:43:37.118Z,8.18
2023-11-15T20:46:16.820Z,8.20
2023-11-15T20:48:48.158Z,8.21
2023-11-15T20:51:16.043Z,8.21
2023-11-15T20:53:44.838Z,8.24
2023-11-15T20:56:12.639Z,8.26
2023-11-15T20:58:41.462Z,8.31
2023-11-15T21:01:10.092Z,8.37
2023-11-15T21:03:37.838Z,8.32
2023-11-15T21:06:09.909Z,8.33
2023-11-15T21:08:38.506Z,8.38
2023-11-15T21:11:06.941Z,8.35
2023-11-15T21:13:35.974Z,8.29
2023-11-15T21:16:07.431Z,8.32
2023-11-15T21:18:35.203Z,8.34
2023-11-15T21:21:04.245Z,8.32
2023-11-15T21:23:33.507Z,8.34
2023-11-15T21:26:01.110Z,8.38
2023-11-15T21:28:28.691Z,8.38
2023-11-15T21:30:57.215Z,8.40
2023-11-15T21:33:25.481Z,8.37
2023-11-15T21:35:53.376Z,8.35
2023-11-15T21:38:22.810Z,8.35
2023-11-15T21:40:52.026Z,8.33
2023-11-15T21:43:19.821Z,8.32
2023-11-15T21:45:48.616Z,8.31
2023-11-15T21:48:16.576Z,8.04
2023-11-15T21:50:45.520Z,8.29
2023-11-15T21:53:13.622Z,8.30
2023-11-15T21:55:41.235Z,8.34
2023-11-15T21:58:10.590Z,8.34
2023-11-15T22:00:38.564Z,8.23
2023-11-15T22:03:06.350Z,8.31
2023-11-15T22:05:34.082Z,8.34
2023-11-15T22:08:02.065Z,8.29
2023-11-15T22:10:30.448Z,8.23
2023-11-15T22:12:58.016Z,8.20
2023-11-15T22:15:29.039Z,8.24
2023-11-15T22:17:56.756Z,8.23
2023-11-15T22:20:24.424Z,8.21
2023-11-15T22:22:52.101Z,8.20
2023-11-15T22:25:20.125Z,8.20
2023-11-15T22:27:47.717Z,8.22
2023-11-15T22:30:16.011Z,8.08
2023-11-15T22:32:45.135Z,8.11
2023-11-15T22:35:12.936Z,8.08
2023-11-15T22:37:40.631Z,8.06
2023-11-15T22:40:09.271Z,8.04
2023-11-15T22:42:38.252Z,8.02
2023-11-15T22:45:06.929Z,7.99
2023-11-15T22:47:34.761Z,7.91
2023-11-15T22:50:05.722Z,7.95
2023-11-15T22:52:34.606Z,7.94
2023-11-15T22:55:02.305Z,7.94
2023-11-15T22:57:30.010Z,7.98
2023-11-15T22:59:57.849Z,8.00
2023-11-15T23:02:25.651Z,8.05
2023-11-15T23:04:53.699Z,8.08
2023-11-15T23:07:22.888Z,8.08
2023-11-15T23:09:51.255Z,8.09
2023-11-15T23:12:19.063Z,8.11
2023-11-15T23:14:46.923Z,8.12
2023-11-15T23:17:14.630Z,8.10
2023-11-15T23:19:42.346Z,8.12
2023-11-15T23:22:10.016Z,8.12
2023-11-15T23:24:40.814Z,8.09
2023-11-15T23:27:11.006Z,8.08
2023-11-15T23:29:38.828Z,8.08
2023-11-15T23:32:07.158Z,8.09
2023-11-15T23:34:34.931Z,8.08
2023-11-15T23:37:03.470Z,8.03
2023-11-15T23:39:31.876Z,8.01
2023-11-15T23:42:01.006Z,8.01
2023-11-15T23:44:28.722Z,8.03
2023-11-15T23:46:58.092Z,8.04
2023-11-15T23:49:25.770Z,7.99
2023-11-15T23:51:53.361Z,7.95
2023-11-15T23:54:20.991Z,7.93
2023-11-15T23:56:48.607Z,7.91
2023-11-15T23:59:21.914Z,7.74
